Pequea, PA

00:10 EST je la 21an de februaro 2018 (GMT -0500)
Pequea, PA | | Change Station

Elev 463 ft 39.92 °N, 76.30 °W | Updated 9 minutes ago

Sennuba
Sennuba
59.8 °F
Sentas kiel 59.8 °F
N
4.0
Vento Varianta Vento from Okcidento
Gusts 4.0 mej/h

hodiaŭ
High -- | Low -- °F
--% Ebla precip.
hieraŭ
High -- | Low -- °F
Precip. -- co
Aerpremo 30.31 co
Vidodistanco 10.0 mejloj
Nuboj Sennuba
Rosopunkto 56 °F
Humido 88%
Pluvokvanto 0.00 co
Neĝprofundo Not available.
6:50 AM 5:48 PM
Kreskanta Lunarko, 27% visible
METAR KLNS 210453Z AUTO 00000KT 10SM CLR 14/12 A3031 RMK AO2 SLPNO T01390122 402390056
Aerpremo 30.31 co
Vidodistanco 10.0 mejloj
Nuboj Sennuba
Rosopunkto 56 °F
Humido 88%
Pluvokvanto 0.00 co
Neĝprofundo Not available.
6:50 AM 5:48 PM
Kreskanta Lunarko, 27% visible
METAR KLNS 210453Z AUTO 00000KT 10SM CLR 14/12 A3031 RMK AO2 SLPNO T01390122 402390056

Get Severe Weather Alerts

Thanks for signing up!

Be on the lookout for a verification email in your inbox.

You'll start receiving the daily forecast at 6 AM.

×

10-Day Weather Forecast

Almanac

Astronomio

Feb. 21, 2018 Leviĝo Subiro
Aktuala tempo
Civila krepusko
Naŭtika krepusko
Astronomia krepusko
Luno
Daŭro de videbla lumo
Daŭro de tago
Tomorrow will be .
, % of the Moon is Illuminated

Hodiaŭaj ekstremaĵoj

State Highs State Lows

Community

WunderPhotos

Category 6

Welcome to Category 6. This is the collective home for Weather Underground's featured writeups by Dr. Jeff Masters (right), Bob Henson (left), Chris Burt, and other regular contributors.

Nearby

Aerkvalito

  Aerkvalito Aerkvalita indico Poluanto
Not available.

Neĝa profundeco

Station Depth Alteco

Earthquake Activity

Urbo Distance Mag. Time & Date
Minimum magnitude displayed is 2.5.

Coastal Water Temperatures

Loko Temperaturo

Stations

Najbaraj veter-stacioj

Loko de stacio Temp Venta
kvazaŭtemperaturo
Rosopunkto Humido Vento Precip. Elev Ĝisdatigita je Tipo
                   

Watches & Warnings

There are currently no watches in effect.